Weather at UCSD Jacobs Medical Center Rooftop Heliport

Public forecast

Using degrees Fahrenheit for public forecast. Weather courtesy of forecast.io.

Closest aviation weather report (METAR) to UCSD Jacobs Medical Center Rooftop Heliport

Closest report is Miramar Marine Corps Air Station - Mitscher Field, 4.3 nm (7.9 km) E.

2024/07/14 16:29 (retrieved 13 minutes ago)

KNKX 141629Z VRB03KT 7SM SCT014 22/17 A3007 RMK AO2 T02220172

Closest aviation forecast (TAF) to UCSD Jacobs Medical Center Rooftop Heliport

Closest forecast is San Diego International Airport, 8.8 nm (16.4 km) SSE.

2024/07/14 15:03 Ammendment (retrieved 2 hours ago)

TAF AMD KSAN 141500Z 1415/1518 VRB03KT P6SM OVC012 FM141700 29006KT P6SM SCT012 FM142000 29010KT P6SM SCT150 FM150400 VRB04KT P6SM BKN012 FM151700 29007KT P6SM SCT012